createdAt,value
2022-10-07T00:01:07.756Z,7.22
2022-10-07T00:03:36.287Z,4.60
2022-10-07T00:06:06.408Z,3.80
2022-10-07T00:08:36.279Z,5.00
2022-10-07T00:11:11.664Z,4.50
2022-10-07T00:13:40.863Z,6.07
2022-10-07T00:16:12.205Z,9.05
2022-10-07T00:18:41.248Z,6.13
2022-10-07T00:21:11.457Z,6.57
2022-10-07T00:23:40.052Z,5.88
2022-10-07T00:26:10.843Z,7.60
2022-10-07T00:28:39.115Z,4.53
2022-10-07T00:31:09.259Z,7.20
2022-10-07T00:33:38.867Z,4.68
2022-10-07T00:36:08.845Z,4.93
2022-10-07T00:38:36.808Z,7.65
2022-10-07T00:41:05.042Z,2.92
2022-10-07T00:43:34.503Z,7.07
2022-10-07T00:46:08.957Z,5.37
2022-10-07T00:48:39.227Z,4.53
2022-10-07T00:51:09.317Z,3.65
2022-10-07T00:53:39.964Z,7.80
2022-10-07T00:56:08.957Z,3.40
2022-10-07T00:58:40.551Z,6.10
2022-10-07T01:01:09.018Z,5.40
2022-10-07T01:03:37.872Z,4.18
2022-10-07T01:06:06.676Z,5.38
2022-10-07T01:08:34.925Z,4.38
2022-10-07T01:11:14.856Z,9.20
2022-10-07T01:13:55.655Z,5.80
2022-10-07T01:16:33.853Z,6.25
2022-10-07T01:19:14.528Z,7.05
2022-10-07T01:21:58.043Z,3.55
2022-10-07T01:24:40.811Z,6.93
2022-10-07T01:27:13.522Z,6.60
2022-10-07T01:29:45.444Z,6.63
2022-10-07T01:32:20.139Z,4.07
2022-10-07T01:34:49.810Z,6.07
2022-10-07T01:37:20.667Z,6.10
2022-10-07T01:39:51.979Z,4.50
2022-10-07T01:42:22.449Z,5.03
2022-10-07T01:44:58.620Z,2.40
2022-10-07T01:47:26.766Z,5.22
2022-10-07T01:49:54.771Z,2.90
2022-10-07T01:52:43.054Z,4.53
2022-10-07T01:55:44.242Z,3.88
2022-10-07T01:58:30.017Z,8.65
2022-10-07T02:01:08.865Z,4.07
2022-10-07T02:03:55.655Z,4.72
2022-10-07T02:06:40.101Z,3.95
2022-10-07T02:09:17.145Z,4.18
2022-10-07T02:11:51.382Z,4.68
2022-10-07T02:14:25.204Z,5.68
2022-10-07T02:16:57.912Z,3.63
2022-10-07T02:19:30.881Z,7.43
2022-10-07T02:22:02.130Z,6.03
2022-10-07T02:24:34.184Z,4.07
2022-10-07T02:27:07.589Z,5.22
2022-10-07T02:29:40.687Z,3.47
2022-10-07T02:32:13.322Z,3.50
2022-10-07T02:34:46.066Z,2.65
2022-10-07T02:37:20.399Z,3.55
2022-10-07T02:39:49.257Z,3.30
2022-10-07T02:42:25.937Z,6.10
2022-10-07T02:45:02.111Z,4.22
2022-10-07T02:47:35.135Z,6.00
2022-10-07T02:50:10.859Z,5.13
2022-10-07T02:52:41.567Z,3.17
2022-10-07T02:55:14.582Z,4.68
2022-10-07T02:57:47.855Z,4.00
2022-10-07T03:00:20.002Z,5.30
2022-10-07T03:02:57.355Z,3.42
2022-10-07T03:05:35.012Z,3.92
2022-10-07T03:08:08.980Z,6.47
2022-10-07T03:10:38.286Z,6.55
2022-10-07T03:13:08.190Z,3.65
2022-10-07T03:15:42.647Z,6.35
2022-10-07T03:18:28.584Z,3.83
2022-10-07T03:21:17.067Z,3.15
2022-10-07T03:23:46.996Z,5.32
2022-10-07T03:26:14.838Z,3.03
2022-10-07T03:28:43.069Z,4.65
2022-10-07T03:31:15.361Z,3.28
2022-10-07T03:33:49.708Z,3.35
2022-10-07T03:36:19.276Z,4.70
2022-10-07T03:38:48.569Z,3.40
2022-10-07T03:41:16.459Z,2.95
2022-10-07T03:43:45.468Z,4.72
2022-10-07T03:46:19.676Z,4.88
2022-10-07T03:48:48.364Z,3.80
2022-10-07T03:51:16.152Z,8.73
2022-10-07T03:53:43.953Z,15.57
2022-10-07T03:56:12.794Z,11.05
2022-10-07T03:58:43.109Z,9.35
2022-10-07T04:01:15.089Z,5.70
2022-10-07T04:03:49.902Z,8.55
2022-10-07T04:06:19.159Z,8.35
2022-10-07T04:08:52.044Z,14.30
2022-10-07T04:11:20.217Z,25.58
2022-10-07T04:13:48.278Z,19.58
2022-10-07T04:16:19.901Z,17.10
2022-10-07T04:18:50.032Z,16.67
2022-10-07T04:21:18.103Z,10.52
2022-10-07T04:23:45.962Z,14.55
2022-10-07T04:26:14.352Z,6.85
2022-10-07T04:28:46.280Z,5.07
2022-10-07T04:31:19.170Z,7.82
2022-10-07T04:33:52.689Z,3.25
2022-10-07T04:36:27.217Z,4.18
2022-10-07T04:39:03.644Z,4.53
2022-10-07T04:41:36.041Z,6.78
2022-10-07T04:44:07.013Z,4.65
2022-10-07T04:46:40.896Z,2.80
2022-10-07T04:49:14.320Z,6.90
2022-10-07T04:51:42.432Z,5.07
2022-10-07T04:54:10.572Z,7.88
2022-10-07T04:56:45.628Z,13.77
2022-10-07T04:59:14.744Z,10.50
2022-10-07T05:01:43.873Z,5.20
2022-10-07T05:04:11.774Z,6.18
2022-10-07T05:06:41.173Z,4.97
2022-10-07T05:09:12.059Z,5.45
2022-10-07T05:11:43.790Z,5.63
2022-10-07T05:14:21.329Z,5.03
2022-10-07T05:16:50.329Z,5.80
2022-10-07T05:19:19.123Z,2.67
2022-10-07T05:21:48.870Z,2.80
2022-10-07T05:24:16.721Z,4.75
2022-10-07T05:26:44.733Z,6.90
2022-10-07T05:29:13.292Z,3.38
2022-10-07T05:31:48.659Z,5.25
2022-10-07T05:34:20.210Z,5.28
2022-10-07T05:36:49.732Z,7.70
2022-10-07T05:39:17.809Z,4.13
2022-10-07T05:41:52.300Z,5.45
2022-10-07T05:44:25.903Z,4.10
2022-10-07T05:46:56.449Z,7.45
2022-10-07T05:49:24.994Z,7.20
2022-10-07T05:51:54.215Z,5.57
2022-10-07T05:54:22.439Z,7.07
2022-10-07T05:56:50.425Z,6.05
2022-10-07T05:59:20.590Z,6.00
2022-10-07T06:01:49.315Z,6.75
2022-10-07T06:04:21.460Z,4.05
2022-10-07T06:06:54.674Z,7.30
2022-10-07T06:09:40.431Z,3.88
2022-10-07T06:12:31.748Z,6.00
2022-10-07T06:15:02.064Z,7.85
2022-10-07T06:17:30.470Z,4.13
2022-10-07T06:20:01.220Z,7.22
2022-10-07T06:22:30.534Z,9.63
2022-10-07T06:25:02.047Z,7.50
2022-10-07T06:27:31.574Z,6.15
2022-10-07T06:30:00.105Z,7.72
2022-10-07T06:32:30.410Z,9.23
2022-10-07T06:37:26.077Z,4.97
2022-10-07T06:39:59.375Z,10.60
2022-10-07T06:42:28.603Z,9.25
2022-10-07T06:44:59.138Z,11.38
2022-10-07T06:47:27.580Z,9.60
2022-10-07T06:49:55.492Z,7.30
2022-10-07T06:52:23.577Z,8.38
2022-10-07T06:54:51.608Z,7.22
2022-10-07T06:57:44.209Z,8.35
2022-10-07T07:00:10.800Z,7.95
2022-10-07T07:02:39.023Z,7.80
2022-10-07T07:05:08.869Z,9.85
2022-10-07T07:07:38.293Z,10.70
2022-10-07T07:10:07.484Z,7.32
2022-10-07T07:12:39.715Z,6.35
2022-10-07T07:15:08.463Z,8.80
2022-10-07T07:17:39.474Z,6.90
2022-10-07T07:20:08.931Z,6.75
2022-10-07T07:22:36.718Z,8.18
2022-10-07T07:25:05.635Z,7.88
2022-10-07T07:27:34.008Z,7.82
2022-10-07T07:30:03.670Z,5.65
2022-10-07T07:32:32.743Z,7.13
2022-10-07T07:35:05.163Z,6.15
2022-10-07T07:37:33.635Z,10.10
2022-10-07T07:40:01.492Z,8.85
2022-10-07T07:45:00.426Z,5.40
2022-10-07T07:47:29.821Z,6.18
2022-10-07T07:49:57.982Z,6.38
2022-10-07T07:52:30.813Z,3.80
2022-10-07T08:00:05.231Z,7.07
2022-10-07T08:02:43.348Z,7.75
2022-10-07T08:05:20.129Z,7.50
2022-10-07T08:07:52.371Z,10.43
2022-10-07T08:10:21.478Z,6.90
2022-10-07T08:12:49.352Z,7.57
2022-10-07T08:15:17.483Z,7.65
2022-10-07T08:17:47.476Z,8.13
2022-10-07T08:20:16.388Z,4.95
2022-10-07T08:22:45.920Z,7.38
2022-10-07T08:25:16.780Z,6.53
2022-10-07T08:27:46.027Z,6.25
2022-10-07T08:30:14.715Z,4.80
2022-10-07T08:32:42.805Z,3.58
2022-10-07T08:35:12.067Z,7.65
2022-10-07T08:37:40.050Z,7.05
2022-10-07T08:40:13.991Z,5.53
2022-10-07T08:42:43.718Z,4.13
2022-10-07T08:45:20.535Z,6.25
2022-10-07T08:47:50.294Z,5.95
2022-10-07T08:50:24.666Z,7.55
2022-10-07T08:52:56.263Z,9.25
2022-10-07T08:55:32.146Z,6.55
2022-10-07T08:58:32.918Z,5.45
2022-10-07T09:01:07.761Z,7.53
2022-10-07T09:03:44.058Z,7.05
2022-10-07T09:06:16.516Z,5.70
2022-10-07T09:08:47.466Z,10.15
2022-10-07T09:11:25.561Z,6.63
2022-10-07T09:13:57.151Z,6.03
2022-10-07T09:16:30.691Z,5.38
2022-10-07T09:19:00.737Z,4.78
2022-10-07T09:21:37.491Z,6.28
2022-10-07T09:24:19.982Z,7.32
2022-10-07T09:26:47.917Z,6.20
2022-10-07T09:29:18.613Z,6.07
2022-10-07T09:31:46.506Z,5.97
2022-10-07T09:34:22.261Z,5.68
2022-10-07T09:37:19.068Z,9.15
2022-10-07T09:39:48.617Z,4.43
2022-10-07T09:42:37.593Z,8.25
2022-10-07T09:45:20.798Z,4.63
2022-10-07T09:47:53.571Z,5.78
2022-10-07T09:50:34.204Z,5.90
2022-10-07T09:53:03.953Z,5.43
2022-10-07T09:55:37.680Z,3.90
2022-10-07T09:58:07.333Z,11.18
2022-10-07T10:00:44.003Z,7.75
2022-10-07T10:03:12.007Z,5.60
2022-10-07T10:05:41.703Z,3.45
2022-10-07T10:08:23.712Z,6.53
2022-10-07T10:10:53.826Z,5.63
2022-10-07T10:13:31.061Z,6.53
2022-10-07T10:16:00.359Z,8.75
2022-10-07T10:18:38.673Z,5.87
2022-10-07T10:21:23.325Z,10.25
2022-10-07T10:23:54.741Z,4.65
2022-10-07T10:26:35.819Z,23.95
2022-10-07T10:29:14.852Z,7.43
2022-10-07T10:32:02.674Z,8.18
2022-10-07T10:34:41.029Z,7.10
2022-10-07T10:37:15.110Z,6.40
2022-10-07T10:39:58.496Z,6.68
2022-10-07T10:42:33.684Z,9.05
2022-10-07T10:45:14.109Z,8.55
2022-10-07T10:47:53.947Z,8.38
2022-10-07T10:50:28.886Z,7.95
2022-10-07T10:53:08.602Z,7.28
2022-10-07T10:56:06.691Z,6.32
2022-10-07T10:58:49.130Z,7.53
2022-10-07T11:01:28.008Z,7.43
2022-10-07T11:04:22.787Z,8.45
2022-10-07T11:07:09.297Z,8.32
2022-10-07T11:09:41.405Z,7.10
2022-10-07T11:12:22.289Z,8.02
2022-10-07T11:14:57.935Z,5.85
2022-10-07T11:17:31.430Z,6.30
2022-10-07T11:20:08.440Z,10.00
2022-10-07T11:22:42.305Z,7.65
2022-10-07T11:25:21.087Z,6.05
2022-10-07T11:27:53.067Z,8.82
2022-10-07T11:30:23.368Z,5.68
2022-10-07T11:35:29.081Z,9.40
2022-10-07T11:38:04.187Z,8.82
2022-10-07T11:40:35.685Z,7.85
2022-10-07T11:43:09.642Z,5.55
2022-10-07T11:45:42.592Z,6.57
2022-10-07T11:48:15.561Z,7.25
2022-10-07T11:50:50.042Z,7.20
2022-10-07T11:53:22.169Z,7.40
2022-10-07T11:55:56.533Z,8.10
2022-10-07T11:58:28.402Z,5.78
2022-10-07T12:01:30.391Z,6.45
2022-10-07T12:04:33.976Z,4.70
2022-10-07T12:07:37.595Z,6.85
2022-10-07T12:10:21.803Z,10.32
2022-10-07T12:12:52.311Z,6.65
2022-10-07T12:15:36.722Z,7.97
2022-10-07T12:18:30.620Z,10.18
2022-10-07T12:21:09.622Z,8.20
2022-10-07T12:23:45.363Z,6.20
2022-10-07T12:26:49.220Z,7.53
2022-10-07T12:29:23.826Z,4.40
2022-10-07T12:31:53.120Z,5.63
2022-10-07T12:34:39.728Z,5.60
2022-10-07T12:37:41.189Z,5.70
2022-10-07T12:40:17.572Z,8.07
2022-10-07T12:42:53.494Z,8.45
2022-10-07T12:45:23.640Z,8.80
2022-10-07T12:47:57.605Z,10.98
2022-10-07T12:50:26.624Z,6.85
2022-10-07T12:52:58.758Z,5.82
2022-10-07T12:55:31.817Z,7.70
2022-10-07T12:58:21.378Z,5.45
2022-10-07T13:01:08.528Z,7.78
2022-10-07T13:04:01.009Z,6.13
2022-10-07T13:06:55.297Z,6.78
2022-10-07T13:10:08.942Z,6.43
2022-10-07T13:12:47.468Z,7.10
2022-10-07T13:15:26.286Z,6.35
2022-10-07T13:17:59.862Z,6.13
2022-10-07T13:20:59.452Z,4.38
2022-10-07T13:23:30.217Z,6.85
2022-10-07T13:26:00.383Z,8.13
2022-10-07T13:28:37.376Z,7.65
2022-10-07T13:31:18.951Z,7.88
2022-10-07T13:33:47.654Z,6.57
2022-10-07T13:36:20.328Z,4.40
2022-10-07T13:38:50.424Z,4.18
2022-10-07T13:41:27.562Z,7.68
2022-10-07T13:43:59.804Z,8.98
2022-10-07T13:46:30.249Z,4.32
2022-10-07T13:48:59.845Z,6.15
2022-10-07T13:51:35.656Z,9.57
2022-10-07T13:54:07.838Z,6.88
2022-10-07T13:56:39.746Z,5.90
2022-10-07T13:59:09.542Z,5.78
2022-10-07T14:01:39.265Z,7.22
2022-10-07T14:04:18.973Z,6.55
2022-10-07T14:06:57.769Z,5.45
2022-10-07T14:09:37.155Z,8.00
2022-10-07T14:12:08.999Z,6.13
2022-10-07T14:14:39.401Z,4.57
2022-10-07T14:17:18.225Z,7.45
2022-10-07T14:19:53.238Z,6.60
2022-10-07T14:22:30.087Z,140.93
2022-10-07T14:25:01.741Z,204.88
2022-10-07T14:28:17.399Z,148.35
2022-10-07T14:31:04.089Z,12.65
2022-10-07T14:34:03.100Z,7.57
2022-10-07T14:36:31.168Z,7.13
2022-10-07T14:39:03.310Z,3.47
2022-10-07T14:41:32.603Z,5.75
2022-10-07T14:44:03.729Z,4.47
2022-10-07T14:46:31.617Z,4.90
2022-10-07T14:48:59.567Z,9.27
2022-10-07T14:51:29.841Z,5.20
2022-10-07T14:56:30.959Z,5.10
2022-10-07T14:58:59.105Z,7.10
2022-10-07T15:01:29.685Z,5.47
2022-10-07T15:03:57.930Z,7.50
2022-10-07T15:06:26.496Z,8.93
2022-10-07T15:08:54.662Z,8.10
2022-10-07T15:11:22.633Z,14.75
2022-10-07T15:13:51.787Z,11.45
2022-10-07T15:16:21.809Z,6.47
2022-10-07T15:18:52.701Z,8.07
2022-10-07T15:21:22.288Z,6.65
2022-10-07T15:23:53.598Z,5.80
2022-10-07T15:26:24.011Z,7.00
2022-10-07T15:28:55.385Z,5.82
2022-10-07T15:31:25.184Z,6.70
2022-10-07T15:33:57.712Z,7.85
2022-10-07T15:36:26.416Z,6.55
2022-10-07T15:38:54.383Z,4.85
2022-10-07T15:41:34.818Z,7.35
2022-10-07T15:46:33.259Z,5.10
2022-10-07T15:49:03.540Z,7.45
2022-10-07T15:53:59.839Z,7.53
2022-10-07T15:56:27.890Z,8.07
2022-10-07T15:58:56.078Z,8.15
2022-10-07T16:01:28.072Z,7.28
2022-10-07T16:03:56.241Z,11.48
2022-10-07T16:06:25.627Z,11.63
2022-10-07T16:08:56.798Z,11.00
2022-10-07T16:11:25.079Z,10.15
2022-10-07T16:13:53.441Z,9.93
2022-10-07T16:16:23.753Z,6.53
2022-10-07T16:18:54.556Z,5.47
2022-10-07T16:21:24.438Z,7.18
2022-10-07T16:23:56.062Z,9.38
2022-10-07T16:26:26.892Z,10.65
2022-10-07T16:29:12.806Z,4.10
2022-10-07T16:31:42.587Z,10.25
2022-10-07T16:34:14.372Z,6.30
2022-10-07T16:36:45.502Z,6.22
2022-10-07T16:39:15.587Z,8.75
2022-10-07T16:41:44.060Z,9.07
2022-10-07T16:44:12.175Z,5.05
2022-10-07T16:46:40.696Z,5.55
2022-10-07T16:49:13.747Z,7.38
2022-10-07T16:51:41.701Z,6.93
2022-10-07T16:54:13.124Z,8.60
2022-10-07T16:56:44.144Z,8.73
2022-10-07T16:59:13.311Z,8.85
2022-10-07T17:04:11.697Z,12.10
2022-10-07T17:06:39.492Z,9.52
2022-10-07T17:09:07.256Z,10.52
2022-10-07T17:11:37.176Z,12.88
2022-10-07T17:14:07.382Z,13.07
2022-10-07T17:16:37.786Z,12.88
2022-10-07T17:19:06.077Z,12.07
2022-10-07T17:21:36.679Z,10.65
2022-10-07T17:24:05.455Z,14.82
2022-10-07T17:26:33.433Z,12.50
2022-10-07T17:29:02.786Z,12.60
2022-10-07T17:31:31.944Z,8.67
2022-10-07T17:34:00.461Z,5.53
2022-10-07T17:36:28.767Z,20.88
2022-10-07T17:38:58.039Z,20.70
2022-10-07T17:41:27.767Z,20.30
2022-10-07T17:43:58.075Z,24.55
2022-10-07T17:48:56.116Z,27.83
2022-10-07T17:51:27.974Z,17.40
2022-10-07T17:53:59.763Z,16.00
2022-10-07T17:56:28.537Z,22.70
2022-10-07T17:58:56.889Z,17.58
2022-10-07T18:01:27.423Z,12.93
2022-10-07T18:03:57.538Z,16.15
2022-10-07T18:06:26.906Z,14.25
2022-10-07T18:08:55.285Z,17.38
2022-10-07T18:11:44.686Z,11.50
2022-10-07T18:14:35.592Z,12.73
2022-10-07T18:17:04.719Z,11.18
2022-10-07T18:19:33.754Z,9.65
2022-10-07T18:22:03.873Z,12.32
2022-10-07T18:24:31.922Z,17.13
2022-10-07T18:27:02.176Z,10.27
2022-10-07T18:32:05.503Z,10.52
2022-10-07T18:34:33.578Z,11.70
2022-10-07T18:37:01.713Z,13.90
2022-10-07T18:39:29.885Z,12.20
2022-10-07T18:41:58.859Z,9.75
2022-10-07T18:44:29.825Z,11.73
2022-10-07T18:46:58.420Z,9.25
2022-10-07T18:49:29.292Z,12.20
2022-10-07T18:51:57.157Z,11.48
2022-10-07T18:54:25.004Z,10.52
2022-10-07T18:56:53.063Z,11.95
2022-10-07T18:59:21.920Z,12.07
2022-10-07T19:01:51.492Z,11.63
2022-10-07T19:04:20.126Z,15.57
2022-10-07T19:06:48.831Z,20.23
2022-10-07T19:09:19.304Z,15.18
2022-10-07T19:11:47.706Z,11.30
2022-10-07T19:14:14.734Z,13.70
2022-10-07T19:16:44.692Z,11.73
2022-10-07T19:19:15.546Z,8.38
2022-10-07T19:21:44.678Z,10.10
2022-10-07T19:24:12.587Z,10.55
2022-10-07T19:26:43.336Z,10.40
2022-10-07T19:29:14.623Z,7.00
2022-10-07T19:31:44.531Z,12.63
2022-10-07T19:34:15.423Z,8.23
2022-10-07T19:36:46.970Z,9.40
2022-10-07T19:39:16.526Z,11.15
2022-10-07T19:41:44.740Z,9.65
2022-10-07T19:44:13.692Z,9.57
2022-10-07T19:46:41.596Z,12.43
2022-10-07T19:49:10.256Z,15.07
2022-10-07T19:51:40.509Z,9.48
2022-10-07T19:56:40.516Z,14.63
2022-10-07T19:59:10.336Z,11.15
2022-10-07T20:01:41.454Z,10.90
2022-10-07T20:04:13.185Z,12.60
2022-10-07T20:06:42.927Z,7.43
2022-10-07T20:09:12.404Z,8.43
2022-10-07T20:11:40.644Z,7.15
2022-10-07T20:14:09.980Z,10.82
2022-10-07T20:16:39.084Z,8.70
2022-10-07T20:19:08.840Z,7.72
2022-10-07T20:21:39.324Z,6.82
2022-10-07T20:24:09.868Z,8.85
2022-10-07T20:26:39.393Z,9.32
2022-10-07T20:29:10.227Z,10.10
2022-10-07T20:31:40.338Z,7.60
2022-10-07T20:34:11.263Z,13.27
2022-10-07T20:36:41.262Z,9.18
2022-10-07T20:39:34.626Z,13.82
2022-10-07T20:42:20.655Z,14.63
2022-10-07T20:44:49.328Z,13.95
2022-10-07T20:47:18.377Z,10.27
2022-10-07T20:49:48.327Z,8.23
2022-10-07T20:52:18.104Z,10.23
2022-10-07T20:54:48.503Z,10.90
2022-10-07T20:57:18.650Z,7.40
2022-10-07T20:59:47.030Z,8.88
2022-10-07T21:02:16.923Z,11.15
2022-10-07T21:04:46.897Z,10.05
2022-10-07T21:07:15.403Z,9.48
2022-10-07T21:09:43.266Z,8.35
2022-10-07T21:12:14.197Z,9.75
2022-10-07T21:14:42.959Z,8.50
2022-10-07T21:17:11.638Z,11.55
2022-10-07T21:19:40.253Z,7.50
2022-10-07T21:22:08.470Z,9.35
2022-10-07T21:24:36.762Z,11.70
2022-10-07T21:27:07.578Z,9.52
2022-10-07T21:29:40.786Z,9.18
2022-10-07T21:32:09.713Z,11.45
2022-10-07T21:34:37.646Z,11.13
2022-10-07T21:37:05.603Z,8.05
2022-10-07T21:39:34.057Z,7.07
2022-10-07T21:42:02.041Z,5.93
2022-10-07T21:44:32.151Z,7.53
2022-10-07T21:47:01.432Z,6.45
2022-10-07T21:49:29.301Z,5.93
2022-10-07T21:51:57.247Z,9.02
2022-10-07T21:54:26.110Z,10.93
2022-10-07T21:56:53.926Z,6.60
2022-10-07T21:59:21.856Z,6.70
2022-10-07T22:01:49.750Z,7.07
2022-10-07T22:04:20.000Z,10.02
2022-10-07T22:07:05.762Z,6.20
2022-10-07T22:09:33.626Z,6.10
